Time;durP1;ratioP1;P1;durP2;ratioP2;P2;SDS_P1;SDS_P2;PMS_P1;PMS_P2;Temp;Humidity;BMP_temperature;BMP_pressure;BME280_temperature;BME280_humidity;BME280_pressure;Samples;Min_cycle;Max_cycle;Signal;HPM_P1;HPM_P2
2022/03/27 00:00:15;;;;;;;12.82;7.70;;;9.00;75.60;;;;;;5032385;28;20129;-72
2022/03/27 00:02:42;;;;;;;10.98;7.18;;;9.00;75.70;;;;;;5032151;28;20071;-72
2022/03/27 00:05:09;;;;;;;12.40;7.50;;;8.90;75.70;;;;;;5031671;28;20024;-70
2022/03/27 00:07:35;;;;;;;12.85;7.82;;;8.90;75.90;;;;;;5031413;28;20480;-70
2022/03/27 00:10:00;;;;;;;10.75;7.22;;;8.90;76.10;;;;;;5031654;28;20031;-70
2022/03/27 00:12:26;;;;;;;14.20;8.32;;;9.00;75.90;;;;;;5031646;28;20060;-72
2022/03/27 00:14:51;;;;;;;11.68;8.30;;;9.00;75.80;;;;;;5031638;28;20436;-72
2022/03/27 00:17:18;;;;;;;11.73;7.70;;;9.00;75.60;;;;;;5031492;28;20100;-71
2022/03/27 00:19:44;;;;;;;13.80;9.13;;;9.00;75.80;;;;;;5031454;28;20401;-72
2022/03/27 00:22:10;;;;;;;12.60;8.43;;;9.00;76.00;;;;;;5031505;28;20025;-72
2022/03/27 00:24:35;;;;;;;11.85;8.30;;;9.00;76.30;;;;;;5031605;28;20051;-72
2022/03/27 00:27:01;;;;;;;12.52;8.27;;;9.00;76.40;;;;;;5031461;28;20495;-71
2022/03/27 00:29:27;;;;;;;12.55;8.02;;;8.90;76.60;;;;;;5033613;28;20032;-72
2022/03/27 00:31:53;;;;;;;14.25;9.38;;;8.90;76.60;;;;;;5035855;28;20033;-72
2022/03/27 00:34:21;;;;;;;12.40;8.02;;;8.80;76.70;;;;;;5035432;28;20096;-69
2022/03/27 00:36:47;;;;;;;13.60;8.18;;;8.90;76.70;;;;;;5017793;28;20025;-71
2022/03/27 00:39:12;;;;;;;11.27;7.88;;;8.80;76.90;;;;;;5031479;28;20374;-71
2022/03/27 00:41:38;;;;;;;13.40;8.35;;;8.90;76.80;;;;;;5025398;28;20241;-70
2022/03/27 00:44:04;;;;;;;13.25;8.35;;;8.80;77.00;;;;;;5035464;28;20025;-70
2022/03/27 00:46:29;;;;;;;14.40;9.00;;;8.80;77.30;;;;;;5017801;28;20124;-70
2022/03/27 00:48:56;;;;;;;14.95;9.07;;;8.70;77.30;;;;;;5017783;28;20101;-70
2022/03/27 00:51:21;;;;;;;19.25;8.80;;;8.60;77.80;;;;;;5035348;28;20044;-70
2022/03/27 00:53:47;;;;;;;13.65;8.73;;;8.50;78.20;;;;;;5035685;28;20024;-70
2022/03/27 00:56:12;;;;;;;17.80;9.18;;;8.40;78.50;;;;;;5037435;28;20143;-71
2022/03/27 00:58:38;;;;;;;14.48;8.57;;;8.30;78.70;;;;;;5054704;28;20391;-71
2022/03/27 01:01:09;;;;;;;14.27;8.40;;;8.30;78.90;;;;;;5055036;28;20017;-71
2022/03/27 01:03:35;;;;;;;14.75;9.23;;;8.30;79.30;;;;;;5037177;28;20068;-71
2022/03/27 01:06:02;;;;;;;13.43;8.55;;;8.20;79.30;;;;;;5054658;28;20029;-71
2022/03/27 01:11:22;;;;;;;16.95;10.20;;;8.10;79.40;;;;;;5041416;28;20514;-70
2022/03/27 01:13:55;;;;;;;12.77;8.27;;;8.00;80.10;;;;;;5054855;28;20029;-71
2022/03/27 01:16:41;;;;;;;14.45;9.07;;;8.00;80.10;;;;;;5037162;28;20029;-72
2022/03/27 01:19:12;;;;;;;14.00;9.40;;;8.10;80.00;;;;;;5039903;28;20049;-71
2022/03/27 01:21:40;;;;;;;17.98;9.95;;;8.00;79.90;;;;;;5054463;28;20095;-71
2022/03/27 01:24:07;;;;;;;18.40;10.25;;;8.00;79.90;;;;;;5054652;28;20052;-71
2022/03/27 01:26:33;;;;;;;14.88;9.20;;;8.00;80.10;;;;;;5054899;28;20031;-71
2022/03/27 01:28:59;;;;;;;14.10;9.02;;;8.00;80.20;;;;;;5054440;28;20427;-71
2022/03/27 01:31:25;;;;;;;13.18;9.38;;;8.00;80.40;;;;;;5036870;28;20025;-71
2022/03/27 01:33:51;;;;;;;14.00;9.15;;;8.00;80.10;;;;;;5054363;28;20047;-72
2022/03/27 01:36:22;;;;;;;14.27;8.80;;;8.00;80.20;;;;;;5054596;28;20104;-71
2022/03/27 01:38:48;;;;;;;13.52;8.30;;;8.00;80.10;;;;;;5047921;28;20028;-71
2022/03/27 01:41:14;;;;;;;14.90;8.65;;;8.20;79.70;;;;;;5039935;28;20033;-71
2022/03/27 01:43:39;;;;;;;15.63;9.02;;;8.20;79.70;;;;;;5054120;28;20048;-71
2022/03/27 01:46:05;;;;;;;12.10;7.45;;;8.20;79.30;;;;;;5054089;28;20040;-72
2022/03/27 01:48:30;;;;;;;15.88;10.13;;;8.20;79.30;;;;;;5053209;28;20021;-72
2022/03/27 01:51:00;;;;;;;16.67;9.73;;;8.10;79.40;;;;;;5053741;28;20033;-72
2022/03/27 01:53:25;;;;;;;13.27;8.60;;;8.10;79.60;;;;;;5054145;28;20020;-71
2022/03/27 01:55:51;;;;;;;14.20;8.98;;;8.10;79.70;;;;;;5036418;28;20037;-71
2022/03/27 01:58:16;;;;;;;15.52;8.88;;;8.10;79.40;;;;;;5033379;28;20030;-71
2022/03/27 02:00:43;;;;;;;12.63;8.23;;;8.00;79.50;;;;;;5034437;28;20030;-71
2022/03/27 02:03:09;;;;;;;14.75;9.25;;;7.90;79.60;;;;;;5046131;28;20025;-70
2022/03/27 02:05:35;;;;;;;14.50;9.80;;;7.80;79.90;;;;;;5046511;28;20033;-71
2022/03/27 02:08:00;;;;;;;14.13;8.80;;;7.70;80.40;;;;;;5044331;28;20041;-71
2022/03/27 02:10:26;;;;;;;18.45;10.10;;;7.70;80.60;;;;;;5044334;28;20105;-71
2022/03/27 02:12:52;;;;;;;12.18;8.93;;;7.50;81.10;;;;;;5020813;28;20500;-71
2022/03/27 02:15:17;;;;;;;18.95;9.57;;;7.40;81.70;;;;;;5036144;28;20022;-71
2022/03/27 02:17:43;;;;;;;16.67;9.85;;;7.30;81.90;;;;;;5034932;28;20475;-72
2022/03/27 02:20:09;;;;;;;15.68;9.57;;;7.20;81.90;;;;;;5034430;28;20028;-71
2022/03/27 02:22:35;;;;;;;14.90;9.70;;;7.10;82.10;;;;;;5033570;28;20427;-71
2022/03/27 02:25:01;;;;;;;16.00;9.85;;;7.10;82.20;;;;;;5033617;28;20052;-71
2022/03/27 02:27:27;;;;;;;14.95;9.68;;;7.00;82.50;;;;;;5014890;28;20022;-71
2022/03/27 02:29:52;;;;;;;15.43;10.35;;;6.90;82.70;;;;;;5033298;28;20021;-71
2022/03/27 02:32:18;;;;;;;17.23;10.13;;;6.90;83.10;;;;;;5033215;28;20037;-71
2022/03/27 02:34:44;;;;;;;17.90;10.98;;;6.80;83.00;;;;;;5015511;28;20056;-71
2022/03/27 02:37:09;;;;;;;14.07;9.85;;;6.70;83.20;;;;;;5032944;28;20014;-70
2022/03/27 02:39:35;;;;;;;15.75;11.10;;;6.60;83.50;;;;;;5008762;28;20038;-71
2022/03/27 02:42:00;;;;;;;17.38;10.85;;;6.50;83.50;;;;;;5026707;28;20052;-71
2022/03/27 02:44:26;;;;;;;16.52;10.02;;;6.50;83.60;;;;;;5034162;28;20048;-71
2022/03/27 02:46:51;;;;;;;16.95;10.35;;;6.40;84.10;;;;;;5041968;28;20025;-72
2022/03/27 02:49:17;;;;;;;18.48;11.30;;;6.40;84.40;;;;;;5030794;28;20025;-71
2022/03/27 02:51:47;;;;;;;20.00;12.00;;;6.30;84.40;;;;;;5030762;28;20061;-71
2022/03/27 02:54:13;;;;;;;18.70;11.15;;;6.30;84.60;;;;;;5044551;28;20028;-71
2022/03/27 02:56:38;;;;;;;17.67;11.18;;;6.20;84.50;;;;;;5049217;28;20022;-71
2022/03/27 02:59:05;;;;;;;18.27;11.32;;;6.20;84.70;;;;;;5034515;28;20392;-71
2022/03/27 03:01:31;;;;;;;18.15;11.57;;;6.10;84.80;;;;;;5034153;28;20104;-71
2022/03/27 03:03:57;;;;;;;16.15;10.57;;;6.10;84.80;;;;;;5033381;28;20680;-71
2022/03/27 03:06:26;;;;;;;19.00;11.50;;;6.10;84.90;;;;;;5033381;28;20022;-71
2022/03/27 03:08:52;;;;;;;19.45;10.85;;;6.00;85.30;;;;;;5032171;28;20024;-71
2022/03/27 03:11:20;;;;;;;17.60;11.88;;;6.00;85.10;;;;;;5014821;28;20017;-71
2022/03/27 03:13:52;;;;;;;15.18;10.25;;;6.00;85.20;;;;;;5032351;28;20017;-71
2022/03/27 03:16:20;;;;;;;18.35;11.27;;;5.90;84.90;;;;;;5032269;28;20044;-71
2022/03/27 03:18:45;;;;;;;17.25;11.25;;;5.80;85.20;;;;;;5031558;28;20052;-71
2022/03/27 03:21:11;;;;;;;20.20;11.10;;;5.70;85.50;;;;;;5032626;28;20544;-71
2022/03/27 03:23:37;;;;;;;16.92;10.82;;;5.60;85.70;;;;;;5032538;28;20489;-69
2022/03/27 03:26:04;;;;;;;20.52;11.40;;;5.60;86.10;;;;;;5032073;28;20030;-70
2022/03/27 03:28:30;;;;;;;19.08;12.13;;;5.60;85.80;;;;;;5031459;28;20128;-71
2022/03/27 03:30:56;;;;;;;19.27;11.65;;;5.60;86.10;;;;;;5031754;28;20026;-71
2022/03/27 03:33:21;;;;;;;16.42;11.80;;;5.60;86.20;;;;;;5032183;28;20017;-71
2022/03/27 03:35:49;;;;;;;17.83;11.15;;;5.60;86.20;;;;;;5031975;28;20477;-71
2022/03/27 03:38:15;;;;;;;21.88;13.55;;;5.50;86.10;;;;;;5013496;28;20032;-71
2022/03/27 03:40:41;;;;;;;18.60;11.95;;;5.50;86.30;;;;;;4999777;28;20505;-71
2022/03/27 03:43:07;;;;;;;21.02;12.63;;;5.50;86.40;;;;;;5032121;28;20508;-71
2022/03/27 03:45:33;;;;;;;19.77;12.80;;;5.40;86.40;;;;;;5014151;28;20025;-71
2022/03/27 03:48:01;;;;;;;19.73;12.20;;;5.40;86.40;;;;;;5030886;28;20025;-70
2022/03/27 03:50:27;;;;;;;20.92;12.45;;;5.40;86.40;;;;;;5031818;28;20026;-71
2022/03/27 03:52:53;;;;;;;19.35;10.93;;;5.30;86.40;;;;;;5015343;28;20132;-70
2022/03/27 03:55:19;;;;;;;18.45;12.18;;;5.30;86.40;;;;;;5031407;28;20116;-70
2022/03/27 03:57:44;;;;;;;20.23;12.23;;;5.20;86.60;;;;;;5030781;28;20071;-70
2022/03/27 04:00:11;;;;;;;23.05;13.00;;;5.20;86.60;;;;;;5031423;28;20083;-71
2022/03/27 04:02:37;;;;;;;17.90;11.55;;;5.20;86.50;;;;;;5013550;28;20022;-71
2022/03/27 04:05:03;;;;;;;22.48;12.70;;;5.10;86.60;;;;;;5031069;28;20040;-71
2022/03/27 04:07:29;;;;;;;21.83;12.95;;;5.10;86.80;;;;;;5030705;28;20129;-70
2022/03/27 04:09:54;;;;;;;20.13;12.00;;;5.00;86.90;;;;;;5013627;28;20029;-71
2022/03/27 04:12:20;;;;;;;22.02;12.35;;;5.00;86.90;;;;;;5013771;28;20028;-72
2022/03/27 04:14:45;;;;;;;21.58;12.63;;;5.00;87.10;;;;;;5031097;28;20386;-71
2022/03/27 04:17:11;;;;;;;21.60;12.55;;;5.00;87.20;;;;;;5031044;28;20040;-70
2022/03/27 04:19:37;;;;;;;24.27;14.10;;;4.90;87.40;;;;;;5013628;28;20396;-71
2022/03/27 04:22:03;;;;;;;20.92;12.68;;;4.80;87.50;;;;;;5031472;28;20060;-71
2022/03/27 04:24:29;;;;;;;20.98;12.63;;;4.80;87.60;;;;;;5031060;28;20029;-71
2022/03/27 04:26:54;;;;;;;22.13;12.63;;;4.80;87.30;;;;;;5031037;28;20436;-70
2022/03/27 04:29:21;;;;;;;24.00;13.05;;;4.70;87.10;;;;;;5030605;28;20480;-71
2022/03/27 04:31:46;;;;;;;23.00;13.68;;;4.70;87.60;;;;;;5031575;28;20013;-71
2022/03/27 04:34:12;;;;;;;20.75;12.48;;;4.70;87.70;;;;;;5013440;28;20373;-71
2022/03/27 04:36:37;;;;;;;22.40;12.20;;;4.70;87.50;;;;;;5031364;28;20026;-72
2022/03/27 04:39:04;;;;;;;18.48;11.80;;;4.70;87.60;;;;;;5027888;28;20040;-71
2022/03/27 04:41:30;;;;;;;25.42;13.13;;;4.60;87.70;;;;;;5019866;28;20092;-71
2022/03/27 04:43:55;;;;;;;21.52;12.57;;;4.60;87.70;;;;;;5030976;28;20152;-71
2022/03/27 04:46:21;;;;;;;22.08;12.85;;;4.50;87.80;;;;;;5031105;28;20069;-71
2022/03/27 04:48:47;;;;;;;23.90;13.40;;;4.60;88.00;;;;;;5012226;28;20056;-71
2022/03/27 04:51:13;;;;;;;26.85;13.38;;;4.60;87.90;;;;;;5031271;28;20017;-72
2022/03/27 04:53:39;;;;;;;23.73;13.75;;;4.60;88.10;;;;;;5026994;28;20033;-71
2022/03/27 04:56:05;;;;;;;25.52;14.82;;;4.60;88.40;;;;;;5050442;28;20456;-71
2022/03/27 04:58:31;;;;;;;23.58;14.10;;;4.70;88.30;;;;;;5050255;28;20136;-71
2022/03/27 05:00:57;;;;;;;23.77;13.85;;;4.80;88.30;;;;;;5050852;28;20033;-71
2022/03/27 05:03:23;;;;;;;20.67;13.27;;;4.70;88.10;;;;;;5050718;28;20013;-70
2022/03/27 05:05:49;;;;;;;21.55;13.38;;;4.70;87.80;;;;;;5051013;28;20021;-71
2022/03/27 05:08:14;;;;;;;20.40;12.73;;;4.70;87.60;;;;;;5056555;23;20130;-76
2022/03/27 05:10:40;;;;;;;20.55;12.75;;;4.80;87.70;;;;;;5049342;28;20056;-76
2022/03/27 05:13:07;;;;;;;20.48;12.55;;;4.90;87.60;;;;;;5052244;28;20017;-75
2022/03/27 05:15:33;;;;;;;19.77;12.15;;;5.00;87.70;;;;;;5056341;28;20431;-76
2022/03/27 05:17:59;;;;;;;23.67;13.60;;;5.20;88.10;;;;;;5039383;28;20035;-75
2022/03/27 05:20:29;;;;;;;22.33;12.13;;;5.50;86.70;;;;;;5058964;28;20445;-76
2022/03/27 05:22:56;;;;;;;15.45;10.30;;;6.30;86.30;;;;;;5070999;28;20086;-76
2022/03/27 05:25:22;;;;;;;16.70;10.50;;;6.90;81.60;;;;;;5062393;28;20025;-76
2022/03/27 05:27:50;;;;;;;15.77;10.32;;;7.90;79.70;;;;;;5037040;28;20070;-76
2022/03/27 05:30:18;;;;;;;12.43;8.75;;;8.70;76.00;;;;;;5055820;28;20032;-76
2022/03/27 05:32:45;;;;;;;13.30;8.98;;;9.50;73.20;;;;;;5055604;28;20024;-75
2022/03/27 05:35:11;;;;;;;15.10;9.05;;;10.30;69.30;;;;;;5055767;28;20056;-76
2022/03/27 05:37:38;;;;;;;13.20;9.15;;;10.80;68.10;;;;;;5054652;28;20095;-76
2022/03/27 05:40:05;;;;;;;15.13;9.70;;;11.50;64.40;;;;;;5044666;28;20080;-76
2022/03/27 05:42:31;;;;;;;13.30;9.32;;;12.00;62.60;;;;;;5054317;28;20404;-76
2022/03/27 05:44:56;;;;;;;12.43;8.90;;;12.60;59.40;;;;;;5055623;28;20036;-76
2022/03/27 05:47:22;;;;;;;13.38;8.55;;;13.00;57.60;;;;;;5054659;28;20025;-76
2022/03/27 05:49:47;;;;;;;10.73;8.15;;;13.70;56.20;;;;;;5055687;28;20079;-76
2022/03/27 05:52:16;;;;;;;12.77;8.65;;;14.20;54.90;;;;;;5055162;28;20025;-76
2022/03/27 05:54:42;;;;;;;11.73;8.52;;;15.00;52.50;;;;;;5055421;28;20108;-76
2022/03/27 05:57:08;;;;;;;12.45;9.35;;;15.10;51.00;;;;;;5055891;28;20488;-75
2022/03/27 05:59:33;;;;;;;12.80;9.48;;;15.20;50.00;;;;;;5055365;28;20074;-76
2022/03/27 06:01:59;;;;;;;11.18;8.48;;;15.10;50.10;;;;;;5055462;28;20021;-76
2022/03/27 06:04:24;;;;;;;11.32;8.63;;;15.20;50.20;;;;;;5055506;28;20128;-76
2022/03/27 06:06:50;;;;;;;12.20;9.07;;;14.90;50.70;;;;;;5054473;28;20094;-76
2022/03/27 06:09:16;;;;;;;14.02;8.43;;;14.60;51.80;;;;;;5054989;28;20048;-76
2022/03/27 06:11:41;;;;;;;12.23;8.75;;;14.90;51.00;;;;;;5055191;28;20503;-77
2022/03/27 06:14:07;;;;;;;12.20;8.40;;;15.40;49.50;;;;;;5055493;28;20025;-76
2022/03/27 06:16:33;;;;;;;10.73;8.52;;;16.10;48.70;;;;;;5037841;28;20052;-76
2022/03/27 06:18:58;;;;;;;9.75;7.45;;;17.30;45.50;;;;;;5055342;28;20403;-77
2022/03/27 06:21:24;;;;;;;11.25;8.65;;;18.30;43.40;;;;;;5055549;28;20051;-77
2022/03/27 06:23:52;;;;;;;9.63;8.27;;;19.00;40.70;;;;;;5055259;28;20133;-76
2022/03/27 06:26:18;;;;;;;11.05;8.45;;;18.40;41.20;;;;;;5054484;28;20036;-77
2022/03/27 06:28:43;;;;;;;11.93;9.40;;;18.20;42.40;;;;;;5054721;28;20028;-77
2022/03/27 06:31:09;;;;;;;11.00;9.43;;;19.10;40.70;;;;;;5055114;28;20031;-77
2022/03/27 06:33:35;;;;;;;11.82;8.68;;;18.40;41.30;;;;;;5055301;28;20480;-77
2022/03/27 06:36:01;;;;;;;10.52;8.52;;;18.70;41.50;;;;;;5054865;28;20032;-77
2022/03/27 06:38:28;;;;;;;10.38;8.52;;;19.20;40.10;;;;;;5053917;28;20055;-77
2022/03/27 06:40:55;;;;;;;10.95;9.02;;;19.30;39.70;;;;;;5037046;28;20068;-77
2022/03/27 06:43:21;;;;;;;11.00;8.85;;;19.30;39.40;;;;;;5055991;28;20561;-77
2022/03/27 06:45:47;;;;;;;11.35;8.85;;;19.40;39.60;;;;;;5056016;28;20111;-77
2022/03/27 06:48:13;;;;;;;10.70;8.20;;;19.70;39.10;;;;;;5054902;28;20174;-77
2022/03/27 06:50:38;;;;;;;10.45;8.50;;;20.00;38.00;;;;;;5055435;28;20048;-77
2022/03/27 06:53:04;;;;;;;10.98;8.85;;;19.90;38.40;;;;;;5053588;28;20021;-77
2022/03/27 06:55:29;;;;;;;11.02;8.90;;;19.20;39.50;;;;;;5035749;28;20026;-77
2022/03/27 06:57:55;;;;;;;11.93;8.82;;;19.20;40.20;;;;;;5016215;28;20034;-78
2022/03/27 07:03:12;;;;;;;10.73;8.43;;;19.90;39.40;;;;;;5010642;28;20032;-78
2022/03/27 07:05:42;;;;;;;10.40;8.18;;;21.00;37.60;;;;;;5033840;28;20025;-77
2022/03/27 07:08:13;;;;;;;10.90;8.63;;;21.30;35.40;;;;;;5015822;28;20087;-77
2022/03/27 07:10:41;;;;;;;11.30;7.85;;;20.80;36.30;;;;;;5015822;28;20268;-76
2022/03/27 07:13:08;;;;;;;12.20;8.30;;;20.80;36.40;;;;;;5015916;28;20104;-76
2022/03/27 07:15:37;;;;;;;9.77;7.95;;;20.00;38.10;;;;;;5033423;28;20057;-76
2022/03/27 07:18:04;;;;;;;11.32;8.63;;;19.70;39.20;;;;;;5016151;28;20073;-77
2022/03/27 07:20:32;;;;;;;11.18;8.38;;;20.30;38.10;;;;;;5034287;28;20021;-77
2022/03/27 07:23:02;;;;;;;11.95;8.88;;;20.10;38.40;;;;;;5034249;28;20463;-77
2022/03/27 07:25:33;;;;;;;10.90;8.90;;;20.10;38.50;;;;;;5034138;28;20039;-77
2022/03/27 07:27:58;;;;;;;10.80;8.43;;;20.20;38.20;;;;;;5015849;28;20680;-77
2022/03/27 07:30:24;;;;;;;10.80;8.30;;;19.40;40.20;;;;;;5033704;28;20029;-76
2022/03/27 07:32:52;;;;;;;11.38;7.63;;;19.90;39.50;;;;;;5034359;28;20029;-77
2022/03/27 07:35:18;;;;;;;10.55;8.75;;;20.60;38.60;;;;;;5034550;28;20052;-77
2022/03/27 07:37:45;;;;;;;10.43;8.65;;;20.80;37.80;;;;;;5033453;28;20446;-77
2022/03/27 07:40:12;;;;;;;9.07;7.57;;;20.80;37.70;;;;;;5033152;28;20116;-77
2022/03/27 07:42:50;;;;;;;10.68;8.02;;;20.50;38.30;;;;;;5018438;28;20033;-76
2022/03/27 07:45:20;;;;;;;9.68;7.97;;;20.60;38.30;;;;;;5039729;28;20493;-77
2022/03/27 07:47:47;;;;;;;9.73;8.00;;;20.60;38.00;;;;;;5034095;28;20025;-76
2022/03/27 07:50:13;;;;;;;9.25;7.53;;;20.10;38.50;;;;;;5036537;28;20033;-77
2022/03/27 07:52:42;;;;;;;9.95;7.72;;;20.30;39.10;;;;;;5055038;28;20025;-77
2022/03/27 07:55:09;;;;;;;8.63;7.65;;;20.90;37.60;;;;;;5039252;28;20028;-76
2022/03/27 07:57:35;;;;;;;12.13;8.25;;;20.60;37.90;;;;;;5058564;28;20021;-77
2022/03/27 08:00:02;;;;;;;10.50;8.70;;;18.80;40.90;;;;;;5060050;28;20059;-77
2022/03/27 08:02:27;;;;;;;13.20;8.93;;;17.30;45.20;;;;;;5063434;28;20025;-78
2022/03/27 08:04:53;;;;;;;12.02;9.15;;;16.90;45.60;;;;;;5043209;28;20029;-77
2022/03/27 08:07:18;;;;;;;13.68;9.30;;;16.00;48.00;;;;;;5048425;28;20415;-77
2022/03/27 08:09:44;;;;;;;14.05;8.32;;;15.20;50.20;;;;;;5063370;28;20428;-77
2022/03/27 08:12:11;;;;;;;11.98;9.13;;;15.60;50.60;;;;;;5063817;28;20021;-76
2022/03/27 08:14:37;;;;;;;14.05;9.23;;;16.10;48.00;;;;;;5064024;28;20067;-77
2022/03/27 08:17:03;;;;;;;12.73;9.10;;;15.30;50.00;;;;;;5065235;28;20458;-78
2022/03/27 08:19:29;;;;;;;13.63;8.13;;;14.60;52.30;;;;;;5065283;28;20104;-76
2022/03/27 08:21:55;;;;;;;13.38;10.02;;;15.10;51.70;;;;;;5062458;28;20054;-77
2022/03/27 08:24:22;;;;;;;14.18;9.05;;;15.80;50.40;;;;;;5060659;28;20447;-78
2022/03/27 08:26:57;;;;;;;11.73;9.02;;;16.50;47.30;;;;;;5036204;28;20031;-77
2022/03/27 08:29:33;;;;;;;13.27;9.43;;;15.70;49.60;;;;;;5052651;28;20021;-77
2022/03/27 08:32:01;;;;;;;13.02;9.27;;;15.20;50.30;;;;;;5061981;28;20111;-77
2022/03/27 08:34:28;;;;;;;12.27;9.10;;;15.20;51.10;;;;;;5057711;28;20025;-77
2022/03/27 08:36:55;;;;;;;11.45;8.50;;;16.00;49.50;;;;;;5040097;28;20017;-77
2022/03/27 08:39:21;;;;;;;11.35;9.00;;;15.90;49.30;;;;;;5056139;28;20025;-77
2022/03/27 08:41:48;;;;;;;11.27;8.20;;;16.50;47.70;;;;;;5053721;28;20025;-77
2022/03/27 08:44:16;;;;;;;13.00;7.93;;;16.90;45.90;;;;;;5036285;28;20175;-77
2022/03/27 08:46:42;;;;;;;11.00;8.02;;;17.50;45.00;;;;;;5035618;28;20048;-78
2022/03/27 08:49:14;;;;;;;11.35;8.00;;;16.60;45.30;;;;;;5052765;28;20404;-77
2022/03/27 08:52:01;;;;;;;12.13;8.57;;;17.00;45.10;;;;;;5039774;28;20103;-77
2022/03/27 08:54:43;;;;;;;9.88;7.32;;;16.20;46.80;;;;;;5038809;28;20553;-77
2022/03/27 08:57:44;;;;;;;10.85;7.93;;;16.40;46.60;;;;;;5056591;28;20033;-77
2022/03/27 09:00:11;;;;;;;10.65;7.28;;;17.00;44.80;;;;;;5057511;28;20071;-78
2022/03/27 09:02:38;;;;;;;8.65;6.72;;;17.50;43.40;;;;;;5039297;28;20437;-77
2022/03/27 09:05:04;;;;;;;10.27;7.97;;;18.30;41.40;;;;;;5056655;28;20035;-78
2022/03/27 09:07:30;;;;;;;9.93;7.22;;;17.70;41.30;;;;;;5055415;28;20039;-78
2022/03/27 09:10:00;;;;;;;9.73;7.13;;;17.70;41.80;;;;;;5056434;28;20029;-79
2022/03/27 09:12:29;;;;;;;9.93;7.10;;;18.50;40.30;;;;;;5056161;28;20029;-77
2022/03/27 09:14:54;;;;;;;9.63;7.10;;;18.50;38.60;;;;;;5056746;28;20028;-77
2022/03/27 09:17:20;;;;;;;9.27;7.13;;;18.10;39.40;;;;;;5055568;28;20419;-77
2022/03/27 09:19:51;;;;;;;10.23;6.57;;;18.60;39.50;;;;;;5056609;28;20522;-76
2022/03/27 09:22:29;;;;;;;11.32;7.60;;;18.50;39.00;;;;;;5057478;28;20039;-77
2022/03/27 09:25:03;;;;;;;9.85;7.40;;;18.30;40.10;;;;;;5057427;28;20082;-77
2022/03/27 09:27:35;;;;;;;8.18;6.78;;;17.70;41.10;;;;;;5057056;28;20027;-77
2022/03/27 09:30:06;;;;;;;12.02;8.30;;;17.50;41.90;;;;;;5056395;28;20029;-78
2022/03/27 09:32:40;;;;;;;9.32;6.82;;;17.60;41.50;;;;;;5056237;28;20103;-77
2022/03/27 09:35:17;;;;;;;9.93;7.38;;;17.50;41.90;;;;;;5056137;28;20060;-78
2022/03/27 09:37:47;;;;;;;12.45;7.63;;;18.00;40.40;;;;;;5055921;28;20052;-78
2022/03/27 09:40:15;;;;;;;10.52;7.38;;;17.50;40.90;;;;;;5038208;28;20050;-77
2022/03/27 09:42:42;;;;;;;11.73;7.00;;;17.70;42.60;;;;;;5040628;28;20032;-78
2022/03/27 09:45:14;;;;;;;12.43;8.25;;;18.00;39.10;;;;;;5057294;28;20043;-77
2022/03/27 09:47:42;;;;;;;10.20;7.72;;;17.70;40.10;;;;;;5055755;28;20032;-76
2022/03/27 09:50:08;;;;;;;10.07;6.63;;;17.00;41.60;;;;;;5055609;28;20379;-77
2022/03/27 09:52:34;;;;;;;10.02;7.30;;;17.40;41.90;;;;;;5055991;28;20025;-77
2022/03/27 09:55:07;;;;;;;10.27;7.05;;;17.30;40.90;;;;;;5055389;28;20013;-77
2022/03/27 09:57:34;;;;;;;10.65;7.68;;;17.60;40.80;;;;;;5054894;28;20026;-77
2022/03/27 10:00:20;;;;;;;9.45;7.28;;;17.40;41.50;;;;;;5055998;28;20017;-77
2022/03/27 10:02:51;;;;;;;9.60;7.10;;;17.70;40.50;;;;;;5054025;28;20029;-76
2022/03/27 10:05:18;;;;;;;11.83;7.40;;;18.10;40.90;;;;;;5055192;28;20361;-76
2022/03/27 10:07:48;;;;;;;11.05;7.80;;;18.10;39.20;;;;;;5055304;28;20079;-78
2022/03/27 10:10:15;;;;;;;8.63;6.68;;;16.90;42.00;;;;;;5055165;28;20107;-77
2022/03/27 10:12:43;;;;;;;13.30;6.78;;;15.80;42.40;;;;;;5055483;28;20023;-76
2022/03/27 10:15:14;;;;;;;10.70;7.38;;;15.30;43.80;;;;;;5055480;28;20025;-77
2022/03/27 10:17:44;;;;;;;9.30;6.65;;;15.20;46.00;;;;;;5055366;28;20017;-77
2022/03/27 10:20:15;;;;;;;7.63;6.50;;;15.50;42.30;;;;;;5058755;28;20084;-77
2022/03/27 10:22:46;;;;;;;8.43;6.07;;;16.00;42.60;;;;;;5058768;28;20522;-77
2022/03/27 10:25:16;;;;;;;7.00;5.60;;;16.30;43.60;;;;;;5059079;28;20032;-77
2022/03/27 10:27:43;;;;;;;9.38;6.72;;;16.30;40.60;;;;;;5059690;28;20031;-77
2022/03/27 10:30:12;;;;;;;10.27;7.80;;;16.30;40.10;;;;;;5058372;28;20503;-77
2022/03/27 10:32:40;;;;;;;9.85;6.90;;;15.40;42.20;;;;;;5055574;28;20029;-77
2022/03/27 10:35:47;;;;;;;9.15;6.57;;;14.70;44.20;;;;;;5057739;28;20017;-77
2022/03/27 10:38:38;;;;;;;8.93;6.40;;;14.30;44.80;;;;;;5057019;28;20017;-77
2022/03/27 10:41:13;;;;;;;;;;;14.20;45.10;;;;;;5056187;28;20013;-76
2022/03/27 10:44:01;;;;;;;9.38;7.65;;;14.20;45.80;;;;;;5055974;28;19912;-77
2022/03/27 10:46:29;;;;;;;11.25;7.30;;;14.10;46.00;;;;;;5054945;28;20488;-77
2022/03/27 10:49:12;;;;;;;9.95;7.20;;;14.30;46.10;;;;;;5034501;28;20037;-77
2022/03/27 10:51:41;;;;;;;10.30;7.30;;;14.40;45.50;;;;;;5034938;28;20544;-77
2022/03/27 10:54:15;;;;;;;9.18;6.45;;;14.40;44.80;;;;;;5035356;28;20022;-77
2022/03/27 10:56:45;;;;;;;9.63;6.32;;;14.40;43.90;;;;;;5020568;28;20021;-79
2022/03/27 10:59:24;;;;;;;8.90;6.63;;;14.20;43.30;;;;;;5056454;28;20046;-80
2022/03/27 11:01:59;;;;;;;6.75;4.88;;;14.30;42.20;;;;;;5053918;28;20028;-79
2022/03/27 11:04:44;;;;;;;9.85;6.25;;;14.30;41.40;;;;;;5059167;28;20021;-78
2022/03/27 11:09:39;;;;;;;25.63;16.75;;;14.50;42.20;;;;;;5049039;28;20056;-72
2022/03/27 11:12:06;;;;;;;16.58;9.88;;;14.60;41.60;;;;;;5033555;28;20110;-70
2022/03/27 11:14:51;;;;;;;12.07;7.25;;;14.50;41.90;;;;;;5052019;28;20025;-73
2022/03/27 11:17:28;;;;;;;11.18;6.15;;;14.60;40.90;;;;;;5052093;28;20013;-73
2022/03/27 11:19:54;;;;;;;5.75;4.57;;;14.60;38.00;;;;;;5052800;28;20092;-75
2022/03/27 11:22:51;;;;;;;26.38;13.60;;;14.80;36.20;;;;;;5052430;28;20064;-73
2022/03/27 11:25:23;;;;;;;87.50;47.28;;;14.70;36.50;;;;;;5039314;28;20048;-73
2022/03/27 11:27:52;;;;;;;;;;;15.00;40.30;;;;;;5046105;28;20037;-74
2022/03/27 11:30:18;;;;;;;9.18;6.30;;;15.10;36.40;;;;;;5047780;28;19920;-71
2022/03/27 11:33:11;;;;;;;44.08;25.55;;;15.10;36.70;;;;;;5052176;28;20021;-73
2022/03/27 11:35:37;;;;;;;6.60;4.82;;;15.10;37.90;;;;;;5052087;28;20021;-73
2022/03/27 11:38:24;;;;;;;6.72;4.30;;;15.10;35.70;;;;;;5051555;28;20032;-74
2022/03/27 11:40:50;;;;;;;40.17;22.60;;;14.80;34.80;;;;;;5051994;28;20021;-73
2022/03/27 11:43:33;;;;;;;8.35;5.38;;;14.90;36.00;;;;;;5034032;28;20059;-73
2022/03/27 11:46:01;;;;;;;11.15;6.38;;;15.10;35.10;;;;;;5051941;28;20025;-73
2022/03/27 11:48:30;;;;;;;7.15;4.63;;;15.00;33.80;;;;;;5033640;28;20029;-70
2022/03/27 11:50:55;;;;;;;5.85;4.35;;;15.00;35.10;;;;;;5035768;28;20103;-74
2022/03/27 11:53:32;;;;;;;5.30;4.13;;;15.00;34.50;;;;;;5051866;28;20092;-76
2022/03/27 11:56:08;;;;;;;7.57;4.60;;;15.00;34.30;;;;;;5051876;28;20025;-73
2022/03/27 11:58:35;;;;;;;5.13;3.92;;;14.80;35.20;;;;;;5033368;28;20021;-72
2022/03/27 12:01:09;;;;;;;6.32;4.03;;;14.90;34.70;;;;;;5052050;28;20025;-72
2022/03/27 12:03:37;;;;;;;6.65;3.97;;;14.70;33.90;;;;;;5051790;28;20021;-72
2022/03/27 12:06:08;;;;;;;22.90;13.85;;;14.70;35.00;;;;;;5033852;28;20033;-72
2022/03/27 12:08:39;;;;;;;7.05;4.90;;;14.80;36.20;;;;;;5051136;28;20499;-75
2022/03/27 12:11:07;;;;;;;11.73;8.02;;;15.00;35.20;;;;;;5034079;28;20021;-75
2022/03/27 12:13:40;;;;;;;10.07;5.20;;;15.00;34.90;;;;;;5051477;28;20033;-73
2022/03/27 12:16:07;;;;;;;10.93;6.57;;;15.00;35.20;;;;;;5033740;28;20026;-72
2022/03/27 12:18:40;;;;;;;4.72;3.45;;;15.10;34.10;;;;;;5051112;28;20029;-73
2022/03/27 12:21:10;;;;;;;6.47;3.78;;;15.30;33.10;;;;;;5034021;28;20107;-73
2022/03/27 12:23:41;;;;;;;4.60;2.42;;;15.20;32.70;;;;;;5051409;28;20031;-73
2022/03/27 12:32:11;;;;;;;26.35;13.35;;;15.40;28.40;;;;;;5051440;28;20450;-73
2022/03/27 12:34:47;;;;;;;3.88;2.38;;;15.40;27.50;;;;;;5033153;28;20029;-76
2022/03/27 12:37:24;;;;;;;34.15;17.20;;;15.20;28.10;;;;;;5050815;28;20108;-73
2022/03/27 12:39:50;;;;;;;4.60;3.38;;;15.20;27.80;;;;;;5051205;28;20120;-72
2022/03/27 12:42:46;;;;;;;4.05;2.58;;;15.30;28.70;;;;;;5051143;28;20100;-75
2022/03/27 12:45:29;;;;;;;4.45;3.13;;;15.30;28.50;;;;;;5039770;28;20028;-75
2022/03/27 12:48:03;;;;;;;3.85;2.22;;;15.30;31.00;;;;;;5032931;28;20075;-73
2022/03/27 12:50:29;;;;;;;3.50;2.45;;;15.40;30.60;;;;;;5050947;28;20029;-75
2022/03/27 12:53:00;;;;;;;67.72;35.35;;;15.50;29.00;;;;;;5051143;28;20017;-72
2022/03/27 12:55:47;;;;;;;8.13;4.53;;;15.60;31.20;;;;;;5051084;28;20105;-74
2022/03/27 12:58:15;;;;;;;67.38;38.42;;;15.70;30.20;;;;;;5030965;28;20399;-77
2022/03/27 13:00:41;;;;;;;77.13;40.95;;;15.90;31.60;;;;;;5051014;28;20017;-71